sensor_id;sensor_type;location;lat;lon;timestamp;pressure;altitude;pressure_sealevel;temperature;humidity
18022;BME280;9136;48.822;7.966;2023-09-18T03:00:42;99609.47;;;18.24;100.00
18022;BME280;9136;48.822;7.966;2023-09-18T03:03:23;99651.22;;;18.22;100.00
18022;BME280;9136;48.822;7.966;2023-09-18T03:58:00;99503.28;;;18.45;100.00
18022;BME280;9136;48.822;7.966;2023-09-18T04:01:34;99445.09;;;18.29;100.00
18022;BME280;9136;48.822;7.966;2023-09-18T04:52:41;99453.94;;;17.95;100.00
18022;BME280;9136;48.822;7.966;2023-09-18T04:59:31;99488.59;;;18.17;100.00
18022;BME280;9136;48.822;7.966;2023-09-18T05:02:50;99487.72;;;18.17;100.00
18022;BME280;9136;48.822;7.966;2023-09-18T05:48:07;99515.84;;;18.08;100.00
18022;BME280;9136;48.822;7.966;2023-09-18T06:09:32;99586.22;;;18.74;100.00
18022;BME280;9136;48.822;7.966;2023-09-18T06:13:00;99573.13;;;18.71;100.00
18022;BME280;9136;48.822;7.966;2023-09-18T06:19:43;99564.97;;;18.62;100.00
18022;BME280;9136;48.822;7.966;2023-09-18T06:22:51;99576.75;;;18.70;100.00
18022;BME280;9136;48.822;7.966;2023-09-18T06:26:13;99607.75;;;18.82;100.00
18022;BME280;9136;48.822;7.966;2023-09-18T06:29:15;99626.41;;;18.94;100.00
18022;BME280;9136;48.822;7.966;2023-09-18T06:32:12;99593.47;;;18.83;100.00
18022;BME280;9136;48.822;7.966;2023-09-18T06:35:15;99606.31;;;18.90;100.00
18022;BME280;9136;48.822;7.966;2023-09-18T06:38:13;99633.44;;;18.95;100.00
18022;BME280;9136;48.822;7.966;2023-09-18T06:41:26;99615.75;;;18.94;100.00
18022;BME280;9136;48.822;7.966;2023-09-18T06:44:36;99647.75;;;19.16;100.00
18022;BME280;9136;48.822;7.966;2023-09-18T06:47:37;99633.81;;;19.12;100.00
18022;BME280;9136;48.822;7.966;2023-09-18T06:50:28;99640.22;;;19.10;100.00
18022;BME280;9136;48.822;7.966;2023-09-18T06:53:23;99626.19;;;19.08;100.00
18022;BME280;9136;48.822;7.966;2023-09-18T06:56:20;99629.56;;;19.10;100.00
18022;BME280;9136;48.822;7.966;2023-09-18T06:59:12;99623.06;;;19.25;100.00
18022;BME280;9136;48.822;7.966;2023-09-18T07:03:43;99624.28;;;19.32;100.00
18022;BME280;9136;48.822;7.966;2023-09-18T07:05:47;99645.22;;;19.37;100.00
18022;BME280;9136;48.822;7.966;2023-09-18T07:09:03;99628.78;;;19.32;100.00
18022;BME280;9136;48.822;7.966;2023-09-18T07:12:01;99645.84;;;19.40;100.00
18022;BME280;9136;48.822;7.966;2023-09-18T07:18:35;99666.69;;;19.58;100.00
18022;BME280;9136;48.822;7.966;2023-09-18T07:21:49;99664.84;;;19.47;100.00
18022;BME280;9136;48.822;7.966;2023-09-18T07:24:41;99669.44;;;19.45;100.00
18022;BME280;9136;48.822;7.966;2023-09-18T07:27:50;99665.56;;;19.49;100.00
18022;BME280;9136;48.822;7.966;2023-09-18T07:31:04;99686.78;;;19.51;100.00
18022;BME280;9136;48.822;7.966;2023-09-18T07:34:10;99662.75;;;19.28;100.00
18022;BME280;9136;48.822;7.966;2023-09-18T07:38:32;99669.31;;;19.24;100.00
18022;BME280;9136;48.822;7.966;2023-09-18T07:40:53;99671.38;;;19.32;100.00
18022;BME280;9136;48.822;7.966;2023-09-18T07:44:45;99650.28;;;19.29;100.00
18022;BME280;9136;48.822;7.966;2023-09-18T07:47:33;99688.47;;;19.40;100.00
18022;BME280;9136;48.822;7.966;2023-09-18T07:55:02;99639.88;;;19.03;100.00
18022;BME280;9136;48.822;7.966;2023-09-18T16:00:27;99444.00;;;23.58;92.11
18022;BME280;9136;48.822;7.966;2023-09-18T16:03:32;99450.53;;;23.55;96.28
18022;BME280;9136;48.822;7.966;2023-09-18T17:11:00;99594.88;;;17.57;100.00
18022;BME280;9136;48.822;7.966;2023-09-18T17:13:50;99561.47;;;17.65;100.00
18022;BME280;9136;48.822;7.966;2023-09-18T17:16:42;99567.63;;;17.66;100.00
18022;BME280;9136;48.822;7.966;2023-09-18T17:19:35;99568.22;;;17.58;100.00
18022;BME280;9136;48.822;7.966;2023-09-18T17:22:26;99589.47;;;17.58;100.00
18022;BME280;9136;48.822;7.966;2023-09-18T17:25:32;99582.56;;;17.43;100.00
18022;BME280;9136;48.822;7.966;2023-09-18T17:28:29;99602.13;;;17.42;100.00
18022;BME280;9136;48.822;7.966;2023-09-18T17:31:40;99590.13;;;17.36;100.00
18022;BME280;9136;48.822;7.966;2023-09-18T17:34:34;99614.97;;;17.35;100.00
18022;BME280;9136;48.822;7.966;2023-09-18T17:37:26;99600.78;;;17.11;100.00
18022;BME280;9136;48.822;7.966;2023-09-18T17:40:46;99614.88;;;17.24;100.00
18022;BME280;9136;48.822;7.966;2023-09-18T17:44:36;99595.88;;;17.17;100.00
18022;BME280;9136;48.822;7.966;2023-09-18T17:47:07;99556.50;;;17.11;100.00
18022;BME280;9136;48.822;7.966;2023-09-18T17:50:22;99547.81;;;17.09;100.00
18022;BME280;9136;48.822;7.966;2023-09-18T17:53:10;99558.50;;;17.21;100.00
18022;BME280;9136;48.822;7.966;2023-09-18T17:56:00;99570.50;;;17.13;100.00
18022;BME280;9136;48.822;7.966;2023-09-18T17:58:56;99530.00;;;16.99;100.00
18022;BME280;9136;48.822;7.966;2023-09-18T18:01:46;99553.66;;;16.89;100.00
18022;BME280;9136;48.822;7.966;2023-09-18T18:04:43;99584.75;;;17.00;100.00
18022;BME280;9136;48.822;7.966;2023-09-18T18:07:55;99566.91;;;17.02;100.00
18022;BME280;9136;48.822;7.966;2023-09-18T18:10:59;99570.09;;;16.94;100.00
18022;BME280;9136;48.822;7.966;2023-09-18T18:14:29;99577.53;;;17.02;100.00
18022;BME280;9136;48.822;7.966;2023-09-18T18:24:30;99554.47;;;17.15;100.00
18022;BME280;9136;48.822;7.966;2023-09-18T18:27:50;99543.16;;;17.00;100.00
18022;BME280;9136;48.822;7.966;2023-09-18T18:30:56;99575.38;;;17.07;100.00
18022;BME280;9136;48.822;7.966;2023-09-18T18:34:00;99586.97;;;16.93;100.00
18022;BME280;9136;48.822;7.966;2023-09-18T18:37:10;99595.25;;;17.01;100.00
18022;BME280;9136;48.822;7.966;2023-09-18T18:40:05;99600.56;;;17.01;100.00
18022;BME280;9136;48.822;7.966;2023-09-18T18:43:03;99613.63;;;16.92;100.00
18022;BME280;9136;48.822;7.966;2023-09-18T18:45:55;99624.97;;;16.81;100.00
18022;BME280;9136;48.822;7.966;2023-09-18T18:48:51;99588.50;;;16.57;100.00
18022;BME280;9136;48.822;7.966;2023-09-18T18:51:43;99588.59;;;16.56;100.00
18022;BME280;9136;48.822;7.966;2023-09-18T18:54:37;99618.66;;;16.69;100.00
18022;BME280;9136;48.822;7.966;2023-09-18T18:57:37;99612.06;;;16.62;100.00
18022;BME280;9136;48.822;7.966;2023-09-18T19:00:37;99617.34;;;16.62;100.00
18022;BME280;9136;48.822;7.966;2023-09-18T19:03:26;99634.41;;;16.58;100.00
18022;BME280;9136;48.822;7.966;2023-09-18T19:06:20;99617.75;;;16.43;100.00
18022;BME280;9136;48.822;7.966;2023-09-18T19:09:08;99631.38;;;16.37;100.00
18022;BME280;9136;48.822;7.966;2023-09-18T19:12:00;99666.31;;;16.44;100.00
18022;BME280;9136;48.822;7.966;2023-09-18T19:14:51;99630.41;;;16.25;100.00
18022;BME280;9136;48.822;7.966;2023-09-18T19:17:43;99654.03;;;16.28;100.00
18022;BME280;9136;48.822;7.966;2023-09-18T19:20:36;99681.13;;;16.34;100.00
18022;BME280;9136;48.822;7.966;2023-09-18T19:23:30;99682.91;;;16.33;100.00
18022;BME280;9136;48.822;7.966;2023-09-18T19:26:29;99658.44;;;16.15;100.00
18022;BME280;9136;48.822;7.966;2023-09-18T19:29:17;99678.00;;;16.27;100.00
18022;BME280;9136;48.822;7.966;2023-09-18T19:32:14;99678.94;;;16.26;100.00
18022;BME280;9136;48.822;7.966;2023-09-18T19:35:02;99692.31;;;16.24;100.00
18022;BME280;9136;48.822;7.966;2023-09-18T19:37:52;99688.59;;;16.27;100.00
18022;BME280;9136;48.822;7.966;2023-09-18T19:40:42;99662.19;;;16.25;100.00
18022;BME280;9136;48.822;7.966;2023-09-18T19:43:33;99653.50;;;16.23;100.00
18022;BME280;9136;48.822;7.966;2023-09-18T19:46:25;99675.75;;;16.48;100.00
18022;BME280;9136;48.822;7.966;2023-09-18T19:49:17;99657.53;;;16.29;100.00
18022;BME280;9136;48.822;7.966;2023-09-18T19:52:06;99676.06;;;16.43;100.00
18022;BME280;9136;48.822;7.966;2023-09-18T19:55:01;99681.00;;;16.35;100.00
18022;BME280;9136;48.822;7.966;2023-09-18T19:57:54;99688.31;;;16.31;100.00
18022;BME280;9136;48.822;7.966;2023-09-18T20:00:45;99665.81;;;16.10;100.00
18022;BME280;9136;48.822;7.966;2023-09-18T20:03:49;99680.66;;;16.27;100.00
18022;BME280;9136;48.822;7.966;2023-09-18T20:06:44;99684.91;;;16.29;100.00
18022;BME280;9136;48.822;7.966;2023-09-18T20:09:39;99682.34;;;16.28;100.00
18022;BME280;9136;48.822;7.966;2023-09-18T20:12:39;99686.53;;;16.32;100.00
18022;BME280;9136;48.822;7.966;2023-09-18T20:15:27;99701.47;;;16.33;100.00
18022;BME280;9136;48.822;7.966;2023-09-18T20:18:26;99684.72;;;16.33;100.00
18022;BME280;9136;48.822;7.966;2023-09-18T20:21:18;99683.56;;;16.37;100.00
18022;BME280;9136;48.822;7.966;2023-09-18T20:24:12;99678.34;;;16.35;100.00
18022;BME280;9136;48.822;7.966;2023-09-18T20:27:01;99673.25;;;16.32;100.00
18022;BME280;9136;48.822;7.966;2023-09-18T20:30:03;99689.06;;;16.34;100.00
18022;BME280;9136;48.822;7.966;2023-09-18T20:33:01;99706.34;;;16.39;100.00
18022;BME280;9136;48.822;7.966;2023-09-18T20:36:04;99692.78;;;16.31;100.00
18022;BME280;9136;48.822;7.966;2023-09-18T20:38:56;99673.00;;;16.22;100.00
18022;BME280;9136;48.822;7.966;2023-09-18T20:42:02;99687.66;;;16.28;100.00
18022;BME280;9136;48.822;7.966;2023-09-18T20:44:54;99705.16;;;16.30;100.00
18022;BME280;9136;48.822;7.966;2023-09-18T20:47:47;99700.06;;;16.27;100.00
18022;BME280;9136;48.822;7.966;2023-09-18T20:50:39;99713.97;;;16.31;100.00
18022;BME280;9136;48.822;7.966;2023-09-18T20:53:50;99723.91;;;16.27;100.00
18022;BME280;9136;48.822;7.966;2023-09-18T20:57:03;99701.91;;;16.13;100.00
18022;BME280;9136;48.822;7.966;2023-09-18T21:00:12;99715.06;;;16.14;100.00
18022;BME280;9136;48.822;7.966;2023-09-18T21:03:35;99730.47;;;16.22;100.00
18022;BME280;9136;48.822;7.966;2023-09-18T21:06:40;99737.56;;;16.21;100.00
18022;BME280;9136;48.822;7.966;2023-09-18T21:09:40;99733.97;;;16.22;100.00
18022;BME280;9136;48.822;7.966;2023-09-18T21:12:49;99693.38;;;16.08;100.00
18022;BME280;9136;48.822;7.966;2023-09-18T21:15:47;99720.13;;;16.17;100.00
18022;BME280;9136;48.822;7.966;2023-09-18T21:18:42;99742.19;;;16.32;100.00
18022;BME280;9136;48.822;7.966;2023-09-18T21:21:43;99743.50;;;16.25;100.00
18022;BME280;9136;48.822;7.966;2023-09-18T21:24:40;99741.50;;;16.28;100.00
18022;BME280;9136;48.822;7.966;2023-09-18T21:27:30;99707.19;;;16.13;100.00
18022;BME280;9136;48.822;7.966;2023-09-18T21:30:54;99744.16;;;16.28;100.00
18022;BME280;9136;48.822;7.966;2023-09-18T21:34:03;99732.16;;;16.23;100.00
18022;BME280;9136;48.822;7.966;2023-09-18T21:37:13;99725.25;;;16.20;100.00
18022;BME280;9136;48.822;7.966;2023-09-18T21:40:29;99749.19;;;16.33;100.00
18022;BME280;9136;48.822;7.966;2023-09-18T21:43:50;99754.00;;;16.41;100.00
18022;BME280;9136;48.822;7.966;2023-09-18T21:50:21;99768.97;;;16.69;100.00
18022;BME280;9136;48.822;7.966;2023-09-18T21:53:51;99754.69;;;16.71;100.00
18022;BME280;9136;48.822;7.966;2023-09-18T22:00:51;99758.31;;;16.70;100.00
18022;BME280;9136;48.822;7.966;2023-09-18T22:03:50;99778.03;;;16.79;100.00
18022;BME280;9136;48.822;7.966;2023-09-18T22:10:39;99795.81;;;16.91;100.00
18022;BME280;9136;48.822;7.966;2023-09-18T22:13:31;99797.63;;;16.91;100.00
18022;BME280;9136;48.822;7.966;2023-09-18T22:16:39;99816.75;;;16.96;100.00
18022;BME280;9136;48.822;7.966;2023-09-18T22:20:10;99804.38;;;16.82;100.00
18022;BME280;9136;48.822;7.966;2023-09-18T22:23:30;99796.41;;;16.68;100.00
18022;BME280;9136;48.822;7.966;2023-09-18T22:26:33;99812.09;;;16.72;100.00
18022;BME280;9136;48.822;7.966;2023-09-18T22:30:09;99792.84;;;16.69;100.00
18022;BME280;9136;48.822;7.966;2023-09-18T22:33:16;99805.50;;;16.78;100.00
18022;BME280;9136;48.822;7.966;2023-09-18T22:36:12;99828.69;;;16.88;100.00
18022;BME280;9136;48.822;7.966;2023-09-18T22:56:27;99802.34;;;16.73;100.00
18022;BME280;9136;48.822;7.966;2023-09-18T22:59:18;99804.97;;;16.73;100.00
18022;BME280;9136;48.822;7.966;2023-09-18T23:02:55;99801.59;;;16.71;100.00
18022;BME280;9136;48.822;7.966;2023-09-18T23:06:03;99801.16;;;16.77;100.00
18022;BME280;9136;48.822;7.966;2023-09-18T23:09:16;99811.78;;;16.77;100.00
18022;BME280;9136;48.822;7.966;2023-09-18T23:12:33;99833.34;;;16.85;100.00
18022;BME280;9136;48.822;7.966;2023-09-18T23:15:57;99813.03;;;16.71;100.00
18022;BME280;9136;48.822;7.966;2023-09-18T23:18:59;99822.81;;;16.71;100.00
18022;BME280;9136;48.822;7.966;2023-09-18T23:21:58;99830.66;;;16.72;100.00
18022;BME280;9136;48.822;7.966;2023-09-18T23:25:12;99832.56;;;16.70;100.00
18022;BME280;9136;48.822;7.966;2023-09-18T23:28:43;99833.75;;;16.65;100.00
18022;BME280;9136;48.822;7.966;2023-09-18T23:32:14;99849.13;;;16.74;100.00
18022;BME280;9136;48.822;7.966;2023-09-18T23:35:06;99835.56;;;16.64;100.00
18022;BME280;9136;48.822;7.966;2023-09-18T23:38:16;99874.31;;;16.81;100.00
18022;BME280;9136;48.822;7.966;2023-09-18T23:41:12;99872.63;;;16.80;100.00
18022;BME280;9136;48.822;7.966;2023-09-18T23:44:37;99865.03;;;16.74;100.00
18022;BME280;9136;48.822;7.966;2023-09-18T23:48:10;99868.06;;;16.82;100.00
18022;BME280;9136;48.822;7.966;2023-09-18T23:51:00;99894.16;;;16.88;100.00
18022;BME280;9136;48.822;7.966;2023-09-18T23:54:09;99860.88;;;16.70;100.00
18022;BME280;9136;48.822;7.966;2023-09-18T23:57:30;99875.53;;;16.75;100.00
